Time;durP1;ratioP1;P1;durP2;ratioP2;P2;SDS_P1;SDS_P2;PMS_P1;PMS_P2;Temp;Humidity;BMP_temperature;BMP_pressure;BME280_temperature;BME280_humidity;BME280_pressure;Samples;Min_cycle;Max_cycle;Signal;HPM_P1;HPM_P2
2023/01/27 00:00:15;;;;;;;18.43;11.17;;;1.30;99.90;;;;;;10478099;28;20299;-80
2023/01/27 00:05:36;;;;;;;24.70;11.57;;;1.30;99.90;;;;;;10479363;28;20283;-81
2023/01/27 00:16:38;;;;;;;24.47;11.97;;;1.30;99.90;;;;;;10460045;28;20482;-80
2023/01/27 00:27:39;;;;;;;22.93;11.77;;;1.30;99.90;;;;;;10477583;28;20222;-81
2023/01/27 00:38:42;;;;;;;20.80;11.43;;;1.30;99.90;;;;;;10477986;28;20226;-81
2023/01/27 00:44:05;;;;;;;19.43;9.83;;;1.30;99.90;;;;;;10489358;28;20195;-79
2023/01/27 00:49:26;;;;;;;23.47;11.23;;;1.30;99.90;;;;;;10478329;28;20371;-78
2023/01/27 00:54:47;;;;;;;26.03;12.17;;;1.30;99.90;;;;;;10482180;28;20513;-80
2023/01/27 01:00:08;;;;;;;28.27;14.00;;;1.30;99.90;;;;;;10484618;28;20219;-78
2023/01/27 01:05:30;;;;;;;25.47;13.77;;;1.40;99.90;;;;;;10437500;28;20255;-78
2023/01/27 01:10:51;;;;;;;19.83;11.20;;;1.50;99.90;;;;;;10436024;28;20199;-78
2023/01/27 01:16:19;;;;;;;18.13;9.70;;;1.50;99.90;;;;;;10450114;28;20202;-79
2023/01/27 01:21:41;;;;;;;16.03;8.53;;;1.50;99.90;;;;;;10449103;28;20231;-79
2023/01/27 01:27:03;;;;;;;12.93;8.87;;;1.50;99.90;;;;;;10477879;28;20187;-79
2023/01/27 01:32:24;;;;;;;15.00;9.13;;;1.60;99.90;;;;;;10460735;28;20191;-78
2023/01/27 01:37:45;;;;;;;16.40;8.67;;;1.60;99.90;;;;;;10457657;28;20275;-79
2023/01/27 01:43:13;;;;;;;13.80;8.20;;;1.60;99.90;;;;;;10435617;28;20203;-80
2023/01/27 01:48:35;;;;;;;12.23;7.50;;;1.60;99.90;;;;;;10441107;28;20207;-78
2023/01/27 01:53:59;;;;;;;12.77;7.83;;;1.60;99.90;;;;;;10490447;28;20215;-78
2023/01/27 01:59:32;;;;;;;10.57;7.03;;;1.60;99.90;;;;;;10473905;28;20537;-79
2023/01/27 02:04:59;;;;;;;14.13;7.73;;;1.60;99.90;;;;;;10485017;28;20196;-79
2023/01/27 02:10:20;;;;;;;13.43;7.73;;;1.70;99.90;;;;;;10476458;28;20196;-78
2023/01/27 02:15:41;;;;;;;11.80;7.90;;;1.70;99.90;;;;;;10476509;28;20199;-79
2023/01/27 02:21:04;;;;;;;19.87;9.63;;;1.70;99.90;;;;;;10476804;28;20230;-79
2023/01/27 02:26:29;;;;;;;17.60;8.20;;;1.70;99.90;;;;;;10467525;28;20225;-79
2023/01/27 02:31:51;;;;;;;11.87;6.80;;;1.70;99.90;;;;;;10481734;28;20214;-81
2023/01/27 02:37:12;;;;;;;8.90;5.93;;;1.70;99.90;;;;;;10481840;28;20203;-78
2023/01/27 02:42:34;;;;;;;9.43;5.50;;;1.70;99.90;;;;;;10482898;28;20253;-81
2023/01/27 02:47:56;;;;;;;8.97;4.67;;;1.80;99.90;;;;;;10468762;28;20192;-79
2023/01/27 02:53:17;;;;;;;6.23;4.27;;;1.70;99.90;;;;;;10481835;28;20225;-79
2023/01/27 02:58:38;;;;;;;6.60;3.73;;;1.70;99.90;;;;;;10465478;28;20235;-79
2023/01/27 03:04:11;;;;;;;3.50;2.90;;;1.80;99.90;;;;;;10495747;28;20196;-77
2023/01/27 03:09:33;;;;;;;4.20;2.70;;;1.80;99.90;;;;;;10499560;28;20199;-79
2023/01/27 03:20:35;;;;;;;4.57;2.90;;;1.80;99.90;;;;;;10481026;28;20216;-80
2023/01/27 03:25:56;;;;;;;4.10;2.87;;;1.90;99.90;;;;;;10506826;28;20209;-79
2023/01/27 03:31:19;;;;;;;3.63;2.97;;;1.90;99.90;;;;;;10481013;28;20198;-81
2023/01/27 03:48:11;;;;;;;4.63;3.07;;;2.00;99.90;;;;;;10480327;28;20188;-79
2023/01/27 03:53:34;;;;;;;6.03;3.63;;;2.00;99.90;;;;;;10480750;28;20192;-80
2023/01/27 03:58:55;;;;;;;4.50;2.90;;;2.00;99.90;;;;;;10478841;28;20243;-80
2023/01/27 04:09:55;;;;;;;4.10;2.43;;;2.10;99.90;;;;;;10479931;28;20199;-79
2023/01/27 04:15:17;;;;;;;3.17;2.33;;;2.10;99.90;;;;;;10491243;28;20215;-82
2023/01/27 04:20:39;;;;;;;2.63;1.80;;;2.10;99.90;;;;;;10479923;28;20510;-80
2023/01/27 04:26:00;;;;;;;1.43;1.33;;;2.20;99.90;;;;;;10490211;28;20576;-80
2023/01/27 04:31:21;;;;;;;1.67;1.50;;;2.20;99.90;;;;;;10456204;28;20204;-81
2023/01/27 04:36:42;;;;;;;4.20;2.23;;;2.20;99.90;;;;;;10479219;28;20384;-78
2023/01/27 04:42:03;;;;;;;2.13;1.73;;;2.20;99.90;;;;;;10476727;28;20486;-79
2023/01/27 04:47:24;;;;;;;1.80;1.43;;;2.20;99.90;;;;;;10491812;28;20195;-76
2023/01/27 04:52:45;;;;;;;1.70;1.20;;;2.20;99.90;;;;;;10477861;28;20263;-77
2023/01/27 04:58:06;;;;;;;1.17;0.93;;;2.20;99.90;;;;;;10462799;28;20231;-78
2023/01/27 05:03:27;;;;;;;3.17;1.73;;;2.20;99.90;;;;;;10480206;28;20202;-79
2023/01/27 05:08:49;;;;;;;3.37;1.90;;;2.20;99.90;;;;;;10481305;28;20192;-80
2023/01/27 05:14:12;;;;;;;1.80;1.37;;;2.20;99.90;;;;;;10476729;28;20191;-80
2023/01/27 05:19:34;;;;;;;3.70;2.13;;;2.10;99.90;;;;;;10477949;28;20222;-80
2023/01/27 05:24:55;;;;;;;2.47;1.80;;;2.20;99.90;;;;;;10477860;28;20220;-81
2023/01/27 05:30:15;;;;;;;3.80;1.67;;;2.20;99.90;;;;;;10455548;28;20434;-79
2023/01/27 05:35:37;;;;;;;3.37;1.90;;;2.20;99.90;;;;;;10436253;28;20295;-78
2023/01/27 05:41:01;;;;;;;5.33;2.30;;;2.20;99.90;;;;;;10439217;28;20264;-78
2023/01/27 05:46:25;;;;;;;7.40;2.00;;;2.20;99.90;;;;;;10436312;28;20193;-80
2023/01/27 05:51:48;;;;;;;3.07;1.73;;;2.10;99.90;;;;;;10436106;28;20235;-77
2023/01/27 05:57:09;;;;;;;2.33;1.87;;;2.10;99.90;;;;;;10445439;28;20228;-77
2023/01/27 06:02:30;;;;;;;3.27;2.30;;;2.10;99.90;;;;;;10481231;28;20220;-79
2023/01/27 06:07:51;;;;;;;4.17;2.57;;;2.10;99.90;;;;;;10484197;28;20207;-81
2023/01/27 06:13:12;;;;;;;4.17;2.50;;;2.10;99.90;;;;;;10483565;28;20245;-78
2023/01/27 06:18:33;;;;;;;4.23;2.43;;;2.10;99.90;;;;;;10484566;28;20192;-77
2023/01/27 06:23:54;;;;;;;2.93;2.07;;;2.00;99.90;;;;;;10483603;28;20242;-80
2023/01/27 06:29:15;;;;;;;2.40;1.63;;;2.00;99.90;;;;;;10467324;28;20257;-80
2023/01/27 06:34:36;;;;;;;6.77;3.23;;;2.00;99.90;;;;;;10433481;28;20208;-77
2023/01/27 06:39:57;;;;;;;4.97;2.30;;;2.00;99.90;;;;;;10442299;28;20227;-79
2023/01/27 06:45:18;;;;;;;3.70;2.70;;;2.00;99.90;;;;;;10457659;28;20272;-77
2023/01/27 06:50:40;;;;;;;3.90;2.60;;;2.00;99.90;;;;;;10495719;28;20210;-75
2023/01/27 06:56:01;;;;;;;9.13;4.43;;;2.00;99.90;;;;;;10481757;28;20216;-76
2023/01/27 07:01:22;;;;;;;10.07;4.03;;;2.00;99.90;;;;;;10481391;28;20540;-76
2023/01/27 07:06:44;;;;;;;11.30;5.03;;;2.00;99.90;;;;;;10453215;28;20207;-82
2023/01/27 07:12:05;;;;;;;14.17;7.80;;;2.00;99.90;;;;;;10439261;28;20203;-74
2023/01/27 07:17:26;;;;;;;387.40;145.57;;;2.00;99.90;;;;;;10471763;28;20559;-80
2023/01/27 07:22:47;;;;;;;22.23;12.07;;;2.00;99.90;;;;;;10482007;28;20222;-79
2023/01/27 07:28:08;;;;;;;9.73;3.23;;;2.00;99.90;;;;;;10480624;28;20233;-79
2023/01/27 07:33:30;;;;;;;6.53;2.60;;;1.90;99.90;;;;;;10469594;28;20199;-80
2023/01/27 07:38:50;;;;;;;10.17;3.03;;;1.90;99.90;;;;;;10481250;28;20188;-80
2023/01/27 07:44:11;;;;;;;8.50;3.67;;;1.90;99.90;;;;;;10481036;28;20218;-81
2023/01/27 07:49:32;;;;;;;9.93;3.03;;;1.90;99.90;;;;;;10477356;28;20199;-79
2023/01/27 07:54:54;;;;;;;8.63;4.00;;;1.90;99.90;;;;;;10479326;28;20390;-77
2023/01/27 08:00:15;;;;;;;10.93;4.00;;;2.10;99.90;;;;;;10480365;28;20520;-75
2023/01/27 08:05:37;;;;;;;6.60;3.10;;;2.20;80.80;;;;;;10478327;28;20200;-79
2023/01/27 08:10:59;;;;;;;7.80;3.33;;;2.20;78.80;;;;;;10479828;28;20195;-79
2023/01/27 08:16:20;;;;;;;11.90;5.10;;;2.20;73.80;;;;;;10479684;28;20394;-80
2023/01/27 08:21:42;;;;;;;14.20;5.63;;;2.20;46.80;;;;;;10463864;28;20448;-80
2023/01/27 08:27:03;;;;;;;16.33;6.27;;;2.20;36.30;;;;;;10477611;28;20390;-78
2023/01/27 08:32:26;;;;;;;11.43;4.70;;;2.30;30.70;;;;;;10460016;28;20244;-79
2023/01/27 08:37:47;;;;;;;6.90;3.37;;;2.40;10.50;;;;;;10442574;28;20249;-77
2023/01/27 08:43:09;;;;;;;10.37;3.13;;;2.50;5.50;;;;;;10469464;28;20425;-78
2023/01/27 08:48:30;;;;;;;13.17;5.10;;;2.60;1.00;;;;;;10452262;28;20197;-78
2023/01/27 08:53:52;;;;;;;16.03;5.70;;;3.00;1.00;;;;;;10471453;28;20232;-80
2023/01/27 08:59:13;;;;;;;20.70;6.27;;;3.30;1.00;;;;;;10469667;28;20232;-74
2023/01/27 09:04:40;;;;;;;78.40;28.87;;;3.30;1.00;;;;;;10472541;28;20771;-76
2023/01/27 09:10:03;;;;;;;29.43;11.03;;;3.40;1.00;;;;;;10471665;28;20197;-79
2023/01/27 09:15:35;;;;;;;21.23;6.97;;;3.40;1.00;;;;;;10470848;28;20200;-85
2023/01/27 09:20:56;;;;;;;19.90;7.87;;;3.40;1.00;;;;;;10457804;28;20416;-80
2023/01/27 09:26:18;;;;;;;26.27;10.93;;;3.20;1.00;;;;;;10457424;28;20218;-78
2023/01/27 09:31:39;;;;;;;20.57;8.00;;;3.00;1.00;;;;;;10471036;28;20258;-81
2023/01/27 09:37:08;;;;;;;13.70;5.77;;;3.00;1.00;;;;;;10489093;28;20763;-77
2023/01/27 09:42:51;;;;;;;23.40;10.57;;;2.90;1.00;;;;;;10479552;28;20302;-78
2023/01/27 09:48:27;;;;;;;20.83;7.57;;;2.80;1.00;;;;;;10486865;28;20225;-77
2023/01/27 09:54:06;;;;;;;19.73;6.73;;;2.80;1.00;;;;;;10474898;28;20530;-78
2023/01/27 09:59:43;;;;;;;14.47;5.80;;;2.80;1.00;;;;;;10479241;28;20236;-78
2023/01/27 10:05:08;;;;;;;13.47;5.10;;;3.00;1.00;;;;;;10465571;28;20242;-77
2023/01/27 10:10:32;;;;;;;14.73;5.63;;;3.00;99.90;;;;;;10464697;28;20409;-78
2023/01/27 10:16:37;;;;;;;12.90;4.47;;;2.90;99.90;;;;;;10478073;28;20213;-80
2023/01/27 10:22:29;;;;;;;25.60;8.07;;;2.80;1.00;;;;;;10480049;28;20227;-81
2023/01/27 10:27:56;;;;;;;10.57;4.53;;;3.00;1.00;;;;;;10493655;28;20190;-79
2023/01/27 10:33:28;;;;;;;16.60;5.90;;;3.20;1.00;;;;;;10454154;28;20598;-77
2023/01/27 10:39:05;;;;;;;18.73;6.10;;;3.50;99.90;;;;;;10457575;28;20529;-83
2023/01/27 10:44:33;;;;;;;10.93;5.37;;;3.70;1.00;;;;;;10436940;28;20256;-76
2023/01/27 10:50:05;;;;;;;7.63;2.70;;;3.90;1.00;;;;;;10466249;28;20204;-79
2023/01/27 10:55:35;;;;;;;6.17;2.47;;;3.80;1.00;;;;;;10478011;28;20259;-76
2023/01/27 11:00:58;;;;;;;5.83;2.70;;;3.60;99.90;;;;;;10475557;28;20262;-80
2023/01/27 11:06:41;;;;;;;6.07;2.23;;;3.20;35.30;;;;;;10466303;28;20215;-79
2023/01/27 11:12:14;;;;;;;10.40;3.10;;;3.00;1.00;;;;;;10477210;28;20203;-80
2023/01/27 11:17:55;;;;;;;12.97;3.97;;;3.00;1.00;;;;;;10462237;28;20212;-75
2023/01/27 11:23:27;;;;;;;19.77;5.60;;;3.00;1.00;;;;;;10513395;28;20240;-77
2023/01/27 11:29:13;;;;;;;10.23;3.80;;;3.90;1.00;;;;;;10433758;28;20201;-75
2023/01/27 11:35:09;;;;;;;16.80;7.73;;;6.60;99.90;;;;;;10476374;28;20436;-84
2023/01/27 11:40:37;;;;;;;19.10;6.43;;;8.90;1.00;;;;;;10470525;28;20249;-81
2023/01/27 11:46:05;;;;;;;13.03;4.37;;;9.40;1.00;;;;;;10474656;28;20283;-90
2023/01/27 11:51:34;;;;;;;19.07;5.10;;;8.50;1.00;;;;;;10503923;28;20212;-80
2023/01/27 11:56:56;;;;;;;9.90;3.60;;;6.70;1.00;;;;;;10517405;28;20790;-80
2023/01/27 12:02:28;;;;;;;13.90;4.67;;;5.70;1.00;;;;;;10460938;28;20231;-80
2023/01/27 12:08:01;;;;;;;9.27;3.67;;;5.10;95.40;;;;;;10443464;28;20486;-80
2023/01/27 12:13:25;;;;;;;7.93;3.07;;;5.30;99.90;;;;;;10459190;28;20245;-80
2023/01/27 12:19:02;;;;;;;6.90;3.03;;;6.00;1.00;;;;;;10494074;28;20207;-82
2023/01/27 12:24:37;;;;;;;8.77;2.97;;;7.20;1.00;;;;;;10459035;28;20474;-80
2023/01/27 12:30:03;;;;;;;23.97;8.90;;;7.00;1.00;;;;;;10472570;28;20827;-80
2023/01/27 12:35:35;;;;;;;6.43;2.73;;;6.20;1.00;;;;;;10444013;28;20348;-85
2023/01/27 12:41:06;;;;;;;15.33;3.57;;;5.60;1.00;;;;;;10455055;28;20254;-79
2023/01/27 12:46:30;;;;;;;12.63;5.83;;;4.80;1.00;;;;;;10472322;28;20203;-80
2023/01/27 12:51:54;;;;;;;8.03;3.63;;;4.40;36.60;;;;;;10445690;28;20224;-80
2023/01/27 12:57:19;;;;;;;8.63;3.90;;;4.40;99.90;;;;;;10457726;28;20252;-79
2023/01/27 13:02:40;;;;;;;9.00;3.83;;;4.10;99.90;;;;;;10472613;28;20885;-79
2023/01/27 13:08:01;;;;;;;10.47;5.73;;;3.90;1.00;;;;;;10470388;28;20217;-77
2023/01/27 13:13:29;;;;;;;39.43;15.07;;;3.90;1.00;;;;;;10432212;28;20214;-80
2023/01/27 13:18:58;;;;;;;30.70;11.73;;;4.00;99.90;;;;;;10508964;28;20236;-80
2023/01/27 13:24:30;;;;;;;13.70;6.07;;;4.30;64.30;;;;;;10486125;28;20245;-80
2023/01/27 13:30:02;;;;;;;34.23;13.73;;;4.40;1.00;;;;;;10481258;28;20496;-80
2023/01/27 13:35:46;;;;;;;22.83;8.60;;;4.00;1.00;;;;;;10478148;28;20263;-79
2023/01/27 13:41:15;;;;;;;45.70;15.10;;;3.50;99.90;;;;;;10458366;28;20276;-77
2023/01/27 13:46:39;;;;;;;41.17;14.20;;;3.10;99.90;;;;;;10472342;28;20239;-77
2023/01/27 13:52:00;;;;;;;31.27;11.03;;;3.10;1.00;;;;;;10470958;28;20236;-76
2023/01/27 13:58:02;;;;;;;18.43;6.53;;;3.20;99.90;;;;;;10471650;28;20240;-79
2023/01/27 14:03:57;;;;;;;16.80;7.30;;;3.30;99.90;;;;;;10494390;28;20317;-79
2023/01/27 14:09:42;;;;;;;8.47;3.90;;;3.10;1.00;;;;;;10510013;28;20196;-79
2023/01/27 14:15:26;;;;;;;13.03;6.40;;;2.90;99.90;;;;;;10507817;28;20282;-78
2023/01/27 14:21:15;;;;;;;17.67;6.30;;;2.80;3.90;;;;;;10508588;28;20242;-79
2023/01/27 14:26:46;;;;;;;29.37;11.97;;;2.70;1.00;;;;;;10515969;28;20538;-79
2023/01/27 14:32:29;;;;;;;46.77;17.13;;;2.70;99.90;;;;;;10485309;28;20200;-79
2023/01/27 14:38:20;;;;;;;62.07;22.07;;;2.50;1.00;;;;;;10467632;28;20232;-79
2023/01/27 14:44:07;;;;;;;46.67;16.97;;;2.40;1.00;;;;;;10435043;28;20242;-76
2023/01/27 14:49:40;;;;;;;49.60;19.57;;;2.30;1.00;;;;;;10475934;28;20421;-78
2023/01/27 14:55:29;;;;;;;22.63;9.37;;;2.10;1.00;;;;;;10474919;28;20235;-77
2023/01/27 15:01:33;;;;;;;22.77;9.93;;;2.10;99.90;;;;;;10478493;28;20230;-79
2023/01/27 15:07:07;;;;;;;18.00;7.13;;;2.10;1.00;;;;;;10462483;28;20196;-79
2023/01/27 15:12:49;;;;;;;19.77;8.70;;;2.00;99.90;;;;;;10460250;28;20437;-78
2023/01/27 15:18:37;;;;;;;16.07;6.37;;;2.00;1.00;;;;;;10477519;28;20267;-76
2023/01/27 15:24:09;;;;;;;22.70;8.27;;;1.90;38.40;;;;;;10500644;28;20281;-76
2023/01/27 15:29:30;;;;;;;12.37;4.63;;;1.90;1.00;;;;;;10475781;28;20421;-76
2023/01/27 15:35:13;;;;;;;19.87;7.20;;;1.80;1.00;;;;;;10464777;28;20208;-76
2023/01/27 15:41:09;;;;;;;24.27;9.07;;;1.80;99.90;;;;;;10461768;28;20572;-77
2023/01/27 15:46:34;;;;;;;48.33;13.70;;;1.70;99.90;;;;;;10461669;28;20213;-77
2023/01/27 15:52:27;;;;;;;27.87;9.30;;;1.70;99.90;;;;;;10483554;28;20490;-78
2023/01/27 15:58:20;;;;;;;14.83;6.57;;;1.60;99.90;;;;;;10459819;28;20298;-77
2023/01/27 16:03:46;;;;;;;11.90;6.57;;;1.70;1.00;;;;;;10474366;28;20269;-78
2023/01/27 16:09:32;;;;;;;15.17;5.67;;;1.60;1.00;;;;;;10476639;28;20206;-80
2023/01/27 16:15:18;;;;;;;14.10;6.50;;;1.60;1.00;;;;;;10478721;28;20244;-78
2023/01/27 16:21:02;;;;;;;11.87;5.40;;;1.60;1.00;;;;;;10437310;28;20215;-77
2023/01/27 16:27:10;;;;;;;15.67;6.43;;;1.60;1.00;;;;;;10476235;28;20202;-80
2023/01/27 16:32:38;;;;;;;17.33;6.77;;;1.50;1.00;;;;;;10478505;28;20259;-81
2023/01/27 16:38:04;;;;;;;14.37;5.57;;;1.50;99.90;;;;;;10479244;28;20555;-79
2023/01/27 16:43:31;;;;;;;10.30;3.80;;;1.50;1.00;;;;;;10478046;28;20231;-78
2023/01/27 16:48:52;;;;;;;11.63;4.57;;;1.50;1.00;;;;;;10478462;28;20266;-76
2023/01/27 16:54:30;;;;;;;11.50;5.27;;;1.60;99.90;;;;;;10477373;28;20274;-77
2023/01/27 16:59:51;;;;;;;15.93;5.63;;;1.60;99.90;;;;;;10476057;28;20203;-80
2023/01/27 17:05:15;;;;;;;18.77;8.27;;;1.60;1.00;;;;;;10478560;28;20213;-78
2023/01/27 17:10:47;;;;;;;20.77;8.97;;;1.60;99.90;;;;;;10477736;28;20198;-81
2023/01/27 17:16:16;;;;;;;22.10;9.13;;;1.50;99.90;;;;;;10477815;28;20204;-81
2023/01/27 17:21:42;;;;;;;14.33;7.43;;;1.50;1.00;;;;;;10478048;28;20254;-77
2023/01/27 17:27:03;;;;;;;14.60;5.83;;;1.40;99.90;;;;;;10472294;28;20179;-76
2023/01/27 17:32:32;;;;;;;15.03;6.37;;;1.40;1.00;;;;;;10439604;28;20441;-78
2023/01/27 17:38:13;;;;;;;11.50;5.23;;;1.50;99.90;;;;;;10441864;28;20192;-77
2023/01/27 17:43:37;;;;;;;11.83;5.50;;;1.50;99.90;;;;;;10461509;28;20277;-78
2023/01/27 17:49:11;;;;;;;13.57;6.43;;;1.50;99.90;;;;;;10476519;28;20196;-81
2023/01/27 17:54:38;;;;;;;14.47;7.40;;;1.50;99.90;;;;;;10476842;28;20241;-81
2023/01/27 18:00:05;;;;;;;14.07;6.27;;;1.50;93.20;;;;;;10482880;28;20227;-79
2023/01/27 18:05:33;;;;;;;7.63;5.00;;;1.50;99.90;;;;;;10487650;28;20206;-77
2023/01/27 18:11:11;;;;;;;12.47;6.10;;;1.50;1.00;;;;;;10488675;28;20195;-76
2023/01/27 18:16:32;;;;;;;13.37;6.93;;;1.50;1.00;;;;;;10484450;28;20200;-80
2023/01/27 18:22:26;;;;;;;13.13;6.63;;;1.50;99.90;;;;;;10485141;28;20241;-80
2023/01/27 18:27:52;;;;;;;11.03;5.00;;;1.50;1.00;;;;;;10484759;28;20531;-79
2023/01/27 18:33:13;;;;;;;9.87;3.77;;;1.50;1.00;;;;;;10455291;28;20275;-80
2023/01/27 18:38:44;;;;;;;10.20;4.70;;;1.40;1.00;;;;;;10454106;28;20245;-76
2023/01/27 18:44:07;;;;;;;12.27;5.37;;;1.40;1.00;;;;;;10482563;28;20262;-79
2023/01/27 18:49:28;;;;;;;10.40;5.03;;;1.50;1.00;;;;;;10480613;28;20498;-77
2023/01/27 18:55:12;;;;;;;11.67;5.13;;;1.50;1.00;;;;;;10482683;28;20233;-79
2023/01/27 19:00:50;;;;;;;10.30;4.40;;;1.50;1.00;;;;;;10454082;28;20422;-79
2023/01/27 19:06:15;;;;;;;13.17;4.60;;;1.50;1.00;;;;;;10481955;28;20238;-75
2023/01/27 19:11:37;;;;;;;12.77;5.63;;;1.50;99.90;;;;;;10481432;28;20188;-81
2023/01/27 19:16:58;;;;;;;7.93;3.80;;;1.50;1.00;;;;;;10480805;28;20241;-81
2023/01/27 19:22:19;;;;;;;13.57;6.93;;;1.50;84.00;;;;;;10476015;28;20236;-79
2023/01/27 19:27:44;;;;;;;18.10;10.70;;;1.50;1.00;;;;;;10482507;28;20188;-80
2023/01/27 19:33:17;;;;;;;14.43;6.73;;;1.50;99.90;;;;;;10467311;28;20203;-81
2023/01/27 19:38:38;;;;;;;21.10;7.33;;;1.40;19.00;;;;;;10453597;28;20218;-79
2023/01/27 19:43:59;;;;;;;18.70;8.90;;;1.40;1.00;;;;;;10481283;28;20525;-79
2023/01/27 19:49:20;;;;;;;10.47;5.73;;;1.50;1.00;;;;;;10479013;28;20196;-80
2023/01/27 19:54:41;;;;;;;5.83;3.40;;;1.50;1.00;;;;;;10480417;28;20208;-77
2023/01/27 20:00:04;;;;;;;12.70;4.83;;;1.50;1.00;;;;;;10480088;28;20566;-79
2023/01/27 20:05:31;;;;;;;11.70;5.23;;;1.40;1.00;;;;;;10480802;28;20199;-79
2023/01/27 20:10:55;;;;;;;6.83;4.03;;;1.40;99.90;;;;;;10478939;28;20224;-79
2023/01/27 20:16:16;;;;;;;21.27;7.33;;;1.40;1.00;;;;;;10479046;28;20280;-77
2023/01/27 20:21:37;;;;;;;11.53;4.57;;;1.30;34.50;;;;;;10479947;28;20223;-77
2023/01/27 20:26:58;;;;;;;9.93;4.30;;;1.30;99.90;;;;;;10477941;28;20206;-81
2023/01/27 20:32:23;;;;;;;21.97;6.90;;;1.30;99.90;;;;;;10479945;28;20188;-80
2023/01/27 20:37:48;;;;;;;13.20;4.80;;;1.30;1.00;;;;;;10479566;28;20183;-79
2023/01/27 20:43:09;;;;;;;17.47;6.13;;;1.30;99.90;;;;;;10476987;28;20234;-81
2023/01/27 20:48:32;;;;;;;7.77;2.73;;;1.30;45.30;;;;;;10477145;28;20483;-78
2023/01/27 20:53:52;;;;;;;25.40;5.80;;;1.30;99.90;;;;;;10479015;28;20275;-76
2023/01/27 20:59:14;;;;;;;44.67;8.73;;;1.30;1.00;;;;;;10448728;28;20532;-82
2023/01/27 21:04:35;;;;;;;25.33;5.90;;;1.30;99.90;;;;;;10449869;28;20233;-79
2023/01/27 21:09:57;;;;;;;21.93;8.23;;;1.30;1.00;;;;;;10450068;28;20267;-79
2023/01/27 21:15:19;;;;;;;27.93;9.57;;;1.30;1.00;;;;;;10462227;28;20513;-81
2023/01/27 21:20:45;;;;;;;23.17;10.03;;;1.10;99.90;;;;;;10491906;28;20262;-80
2023/01/27 21:26:08;;;;;;;25.47;11.30;;;1.00;1.00;;;;;;10468099;28;20207;-81
2023/01/27 21:31:29;;;;;;;23.33;9.97;;;0.80;99.90;;;;;;10478320;28;20382;-77
2023/01/27 21:36:53;;;;;;;16.87;7.50;;;0.80;99.90;;;;;;10486584;28;20195;-79
2023/01/27 21:47:35;;;;;;;20.53;9.50;;;0.70;99.90;;;;;;10468110;28;20241;-80
2023/01/27 21:52:56;;;;;;;12.17;5.97;;;0.70;1.00;;;;;;10486395;28;20205;-82
2023/01/27 21:58:17;;;;;;;12.87;6.30;;;0.60;1.00;;;;;;10485723;28;20265;-81
2023/01/27 22:03:38;;;;;;;12.47;6.00;;;0.50;1.00;;;;;;10484834;28;20526;-77
2023/01/27 22:08:59;;;;;;;13.03;6.30;;;0.50;1.00;;;;;;10488797;28;20210;-77
2023/01/27 22:14:20;;;;;;;18.20;6.33;;;0.50;99.90;;;;;;10469198;28;20205;-82
2023/01/27 22:19:42;;;;;;;12.53;6.30;;;0.50;99.90;;;;;;10448077;28;20331;-77
2023/01/27 22:25:03;;;;;;;15.03;7.00;;;0.50;99.90;;;;;;10483223;28;20236;-76
2023/01/27 22:30:24;;;;;;;14.60;6.37;;;0.50;1.00;;;;;;10484348;28;20198;-81
2023/01/27 22:35:45;;;;;;;12.90;5.57;;;0.40;1.00;;;;;;10482273;28;20596;-78
2023/01/27 22:41:06;;;;;;;10.50;4.87;;;0.40;1.00;;;;;;10483580;28;23057;-75
2023/01/27 22:46:27;;;;;;;9.77;4.70;;;0.40;99.90;;;;;;10482683;28;20267;-79
2023/01/27 22:51:49;;;;;;;12.50;5.40;;;0.40;99.90;;;;;;10481073;28;20202;-79
2023/01/27 22:57:10;;;;;;;10.60;5.13;;;0.40;1.00;;;;;;10468220;28;20242;-78
2023/01/27 23:02:31;;;;;;;10.47;4.90;;;0.30;1.00;;;;;;10483197;28;20318;-79
2023/01/27 23:07:52;;;;;;;12.93;5.30;;;0.30;99.90;;;;;;10466503;28;20209;-77
2023/01/27 23:13:14;;;;;;;12.40;6.03;;;0.30;1.00;;;;;;10479308;28;20202;-75
2023/01/27 23:18:35;;;;;;;9.60;5.37;;;0.40;1.00;;;;;;10482151;28;20191;-80
2023/01/27 23:23:57;;;;;;;8.40;4.23;;;0.40;37.20;;;;;;10471597;28;20582;-78
2023/01/27 23:29:18;;;;;;;8.57;3.87;;;0.30;1.00;;;;;;10426375;28;20202;-80
2023/01/27 23:34:45;;;;;;;5.10;3.27;;;0.40;99.90;;;;;;10441156;28;20199;-79
2023/01/27 23:40:06;;;;;;;7.63;4.20;;;0.30;1.00;;;;;;10449018;28;20253;-79
2023/01/27 23:45:27;;;;;;;12.73;4.20;;;0.30;99.90;;;;;;10481837;28;20408;-80
2023/01/27 23:50:49;;;;;;;7.67;4.03;;;0.30;1.00;;;;;;10481763;28;20269;-81
2023/01/27 23:56:12;;;;;;;9.53;5.07;;;0.40;1.00;;;;;;10478852;28;20250;-79
